Time;durP1;ratioP1;P1;durP2;ratioP2;P2;SDS_P1;SDS_P2;PMS_P1;PMS_P2;Temp;Humidity;BMP_temperature;BMP_pressure;BME280_temperature;BME280_humidity;BME280_pressure;Samples;Min_cycle;Max_cycle;Signal;HPM_P1;HPM_P2
2022/06/20 04:01:39;;;;;;;23.87;14.07;;;22.40;99.90;;;;;;5488193;23;20619;-68
2022/06/20 04:04:11;;;;;;;18.33;12.83;;;22.40;99.90;;;;;;5017347;28;20986;-67
2022/06/20 04:06:42;;;;;;;13.77;12.30;;;22.40;99.90;;;;;;5017403;28;20441;-67
2022/06/20 04:12:03;;;;;;;15.93;11.60;;;22.50;99.90;;;;;;5017273;28;20580;-66
2022/06/20 04:14:34;;;;;;;15.83;12.60;;;22.50;99.90;;;;;;5017342;28;20492;-66
2022/06/20 04:19:53;;;;;;;18.83;12.50;;;22.60;99.90;;;;;;5016435;28;20445;-65
2022/06/20 04:22:27;;;;;;;14.83;11.37;;;22.70;99.90;;;;;;5016823;28;20484;-66
2022/06/20 04:24:58;;;;;;;19.30;10.17;;;22.80;99.90;;;;;;5016826;28;21013;-66
2022/06/20 04:27:29;;;;;;;15.13;10.47;;;22.90;99.90;;;;;;5016943;28;20824;-65
2022/06/20 04:30:00;;;;;;;13.07;9.73;;;22.90;99.90;;;;;;5016552;28;20934;-65
2022/06/20 04:32:34;;;;;;;11.13;9.60;;;22.90;99.90;;;;;;5016844;28;20476;-67
2022/06/20 04:35:07;;;;;;;12.80;10.50;;;22.90;99.90;;;;;;5016654;28;20495;-66
2022/06/20 04:37:39;;;;;;;15.60;10.90;;;22.90;99.90;;;;;;5016998;28;20445;-66
2022/06/20 04:40:15;;;;;;;17.00;10.00;;;22.80;99.90;;;;;;5016979;28;20805;-66
2022/06/20 04:42:47;;;;;;;14.53;9.70;;;22.80;99.90;;;;;;5017367;28;20440;-66
2022/06/20 04:45:18;;;;;;;9.43;8.03;;;22.80;99.90;;;;;;5016430;28;20523;-66
2022/06/20 04:47:50;;;;;;;14.20;10.10;;;22.70;99.90;;;;;;5017154;28;20460;-66
2022/06/20 04:50:21;;;;;;;12.03;8.30;;;22.60;99.90;;;;;;5017206;28;20441;-66
2022/06/20 04:52:51;;;;;;;11.40;9.23;;;22.40;99.90;;;;;;5016653;28;20438;-66
2022/06/20 04:55:20;;;;;;;11.53;9.13;;;22.30;99.90;;;;;;5016603;28;20453;-67
2022/06/20 04:57:48;;;;;;;12.30;9.50;;;22.20;99.90;;;;;;5016210;28;20957;-67
2022/06/20 05:00:20;;;;;;;11.37;9.23;;;22.20;99.90;;;;;;5016520;28;20456;-67
2022/06/20 05:02:49;;;;;;;10.10;8.50;;;22.10;99.90;;;;;;5016388;28;20437;-66
2022/06/20 05:05:19;;;;;;;9.93;8.70;;;22.10;99.90;;;;;;5016400;28;20476;-68
2022/06/20 05:07:48;;;;;;;11.23;9.03;;;22.00;99.90;;;;;;5016471;28;20485;-67
2022/06/20 05:10:20;;;;;;;16.87;8.87;;;22.00;99.90;;;;;;5016174;28;20506;-67
2022/06/20 05:12:53;;;;;;;13.17;8.60;;;22.00;99.90;;;;;;5016092;28;20437;-68
2022/06/20 05:15:24;;;;;;;18.83;9.10;;;22.00;99.90;;;;;;5016541;28;20444;-67
2022/06/20 05:17:54;;;;;;;11.60;9.03;;;22.00;99.90;;;;;;5016225;28;20442;-68
2022/06/20 05:20:25;;;;;;;14.63;8.50;;;22.00;99.90;;;;;;5016252;28;20460;-68
2022/06/20 05:22:59;;;;;;;13.93;7.90;;;22.00;99.90;;;;;;5016237;28;20448;-67
2022/06/20 05:25:27;;;;;;;10.47;7.80;;;22.00;99.90;;;;;;5015839;28;20461;-67
2022/06/20 05:27:57;;;;;;;10.50;7.60;;;22.00;99.90;;;;;;5015928;28;20511;-67
2022/06/20 05:30:32;;;;;;;8.43;7.10;;;22.00;99.90;;;;;;5016562;28;20461;-67
2022/06/20 05:33:09;;;;;;;13.33;7.33;;;22.10;99.90;;;;;;5016033;28;20451;-67
2022/06/20 05:35:40;;;;;;;10.73;8.27;;;22.10;99.90;;;;;;5015986;28;20802;-67
2022/06/20 05:38:15;;;;;;;12.23;7.37;;;22.20;99.90;;;;;;5016055;28;20437;-67
2022/06/20 05:40:47;;;;;;;10.57;7.70;;;22.20;99.90;;;;;;5015493;28;21040;-66
2022/06/20 05:43:18;;;;;;;9.03;6.13;;;22.20;99.90;;;;;;5015411;28;20541;-66
2022/06/20 05:45:48;;;;;;;11.33;6.73;;;22.20;99.90;;;;;;5015631;28;20497;-67
2022/06/20 05:48:17;;;;;;;12.07;7.07;;;22.10;99.90;;;;;;5015621;28;20468;-67
2022/06/20 05:50:51;;;;;;;13.77;6.80;;;22.10;99.90;;;;;;5015541;28;20476;-67
2022/06/20 05:53:24;;;;;;;7.63;6.90;;;22.10;99.90;;;;;;5016557;28;20487;-66
2022/06/20 05:55:53;;;;;;;11.30;7.70;;;22.10;99.90;;;;;;5021679;28;20491;-68
2022/06/20 05:58:23;;;;;;;8.70;7.60;;;22.20;99.90;;;;;;5020311;28;20456;-67
2022/06/20 06:00:53;;;;;;;14.70;7.30;;;22.20;99.90;;;;;;5018132;28;20899;-67
2022/06/20 06:03:27;;;;;;;11.27;7.60;;;22.20;99.90;;;;;;5021960;28;20479;-67
2022/06/20 06:06:03;;;;;;;9.37;7.60;;;22.30;99.90;;;;;;5028383;28;20522;-66
2022/06/20 06:08:37;;;;;;;11.03;7.30;;;22.30;99.90;;;;;;5016624;28;20513;-66
2022/06/20 06:11:10;;;;;;;11.50;7.57;;;22.40;99.90;;;;;;5015385;28;20477;-67
2022/06/20 06:13:43;;;;;;;9.00;7.50;;;22.60;99.90;;;;;;5015456;28;20445;-67
2022/06/20 06:19:14;;;;;;;9.73;6.67;;;22.80;99.90;;;;;;5015101;28;20486;-67
2022/06/20 06:21:43;;;;;;;12.10;6.90;;;22.80;99.90;;;;;;5014862;28;20483;-67
2022/06/20 06:24:13;;;;;;;11.83;7.13;;;22.90;99.90;;;;;;5014969;28;20480;-67
2022/06/20 06:26:42;;;;;;;13.63;6.63;;;22.90;99.90;;;;;;5014868;28;20442;-67
2022/06/20 06:29:17;;;;;;;10.43;6.73;;;22.90;99.90;;;;;;5014904;28;20453;-67
2022/06/20 06:31:46;;;;;;;14.50;5.97;;;23.00;99.90;;;;;;5014491;28;20480;-67
2022/06/20 06:34:20;;;;;;;9.53;5.87;;;23.10;99.90;;;;;;5015008;28;20449;-67
2022/06/20 06:36:52;;;;;;;7.90;6.60;;;23.10;99.90;;;;;;5014648;28;20445;-67
2022/06/20 06:39:24;;;;;;;11.30;6.60;;;23.10;99.90;;;;;;5015078;28;20873;-68
2022/06/20 06:41:55;;;;;;;10.90;6.80;;;23.10;99.90;;;;;;5014736;28;20481;-67
2022/06/20 06:44:30;;;;;;;11.27;7.00;;;23.10;99.90;;;;;;5014226;28;20465;-67
2022/06/20 06:46:57;;;;;;;10.60;6.27;;;23.30;99.90;;;;;;5014432;28;20919;-67
2022/06/20 06:49:33;;;;;;;14.27;7.13;;;23.40;99.90;;;;;;5014469;28;21014;-67
2022/06/20 06:52:06;;;;;;;11.30;7.80;;;23.70;99.90;;;;;;5014525;28;20526;-67
2022/06/20 06:54:51;;;;;;;9.93;6.97;;;24.10;99.90;;;;;;5014539;28;20437;-67
2022/06/20 06:57:23;;;;;;;14.97;7.20;;;24.50;99.90;;;;;;5014416;28;20524;-68
2022/06/20 06:59:57;;;;;;;9.60;6.47;;;24.80;99.90;;;;;;5014070;28;20912;-67
2022/06/20 07:02:28;;;;;;;13.33;6.90;;;25.10;99.90;;;;;;5014109;28;20527;-67
2022/06/20 07:05:01;;;;;;;10.40;6.03;;;25.60;99.90;;;;;;5014149;28;20963;-68
2022/06/20 07:07:33;;;;;;;9.00;6.10;;;26.10;99.90;;;;;;5014248;28;20808;-67
2022/06/20 07:10:01;;;;;;;8.27;5.90;;;26.60;99.90;;;;;;5013794;28;20928;-68
2022/06/20 07:12:34;;;;;;;9.60;5.33;;;27.20;99.90;;;;;;5014445;28;20469;-68
2022/06/20 07:15:12;;;;;;;9.60;6.50;;;27.80;99.90;;;;;;5014194;28;20434;-68
2022/06/20 07:17:43;;;;;;;7.80;6.23;;;28.40;99.90;;;;;;5014378;28;20851;-67
2022/06/20 07:20:12;;;;;;;11.53;5.80;;;29.00;99.90;;;;;;5014427;28;20460;-68
2022/06/20 07:22:42;;;;;;;8.13;5.30;;;29.40;99.90;;;;;;5014259;28;20507;-68
2022/06/20 07:25:16;;;;;;;8.20;6.13;;;29.80;99.90;;;;;;5013808;28;20472;-67
2022/06/20 07:27:47;;;;;;;10.60;6.53;;;30.00;99.90;;;;;;5014583;28;20479;-67
2022/06/20 07:30:18;;;;;;;8.40;5.87;;;30.40;99.90;;;;;;5014369;28;20476;-68
2022/06/20 07:32:50;;;;;;;8.90;6.63;;;31.00;98.60;;;;;;5014175;28;20445;-68
2022/06/20 07:35:22;;;;;;;9.90;6.80;;;31.60;96.80;;;;;;5013668;28;20437;-68
2022/06/20 07:37:54;;;;;;;7.07;5.53;;;31.80;95.80;;;;;;5013958;28;20441;-68
2022/06/20 07:40:26;;;;;;;11.13;6.37;;;32.40;94.50;;;;;;5013912;28;20524;-68
2022/06/20 07:42:56;;;;;;;8.30;5.80;;;32.50;92.10;;;;;;5015866;28;20441;-69
2022/06/20 07:45:27;;;;;;;8.70;5.97;;;32.70;92.10;;;;;;5015484;28;20480;-66
2022/06/20 07:47:57;;;;;;;9.87;5.87;;;33.00;91.70;;;;;;5015010;28;20441;-68
2022/06/20 07:50:32;;;;;;;8.97;5.70;;;33.50;91.70;;;;;;5013716;28;20452;-67
2022/06/20 07:53:06;;;;;;;8.07;5.23;;;33.60;88.80;;;;;;5013793;28;20440;-68
2022/06/20 07:55:35;;;;;;;9.20;5.00;;;33.80;86.00;;;;;;5013763;28;20436;-68
2022/06/20 07:58:08;;;;;;;10.33;5.10;;;33.80;86.20;;;;;;5013874;28;20825;-67
2022/06/20 08:00:41;;;;;;;8.20;4.40;;;34.00;83.60;;;;;;5013712;28;20507;-69
2022/06/20 08:03:15;;;;;;;6.23;5.30;;;34.20;83.00;;;;;;5013682;28;20503;-67
2022/06/20 08:05:49;;;;;;;6.90;5.30;;;34.40;78.70;;;;;;5013755;28;20468;-67
2022/06/20 08:08:20;;;;;;;7.40;5.03;;;34.60;78.40;;;;;;5014390;28;20444;-67
2022/06/20 08:10:51;;;;;;;7.80;5.37;;;35.00;75.20;;;;;;5013854;28;20473;-67
2022/06/20 08:13:23;;;;;;;6.37;5.00;;;35.00;75.80;;;;;;5013791;28;20496;-68
2022/06/20 08:15:57;;;;;;;7.80;6.07;;;35.10;75.00;;;;;;5013450;28;20432;-68
2022/06/20 08:18:24;;;;;;;9.17;6.67;;;35.30;72.80;;;;;;5014326;28;20451;-68
2022/06/20 08:20:58;;;;;;;6.30;5.47;;;35.20;72.10;;;;;;5014558;28;20475;-68
2022/06/20 08:23:31;;;;;;;7.10;5.40;;;35.20;72.00;;;;;;5016999;28;20915;-68
2022/06/20 08:26:01;;;;;;;7.47;5.47;;;35.00;71.60;;;;;;5017156;28;20464;-67
2022/06/20 08:28:32;;;;;;;10.07;5.40;;;34.90;70.60;;;;;;5017053;28;20511;-67
2022/06/20 08:31:04;;;;;;;8.47;5.43;;;35.00;71.20;;;;;;5017142;28;20522;-67
2022/06/20 08:33:38;;;;;;;13.80;5.97;;;35.10;70.20;;;;;;5016974;28;20436;-67
2022/06/20 08:36:12;;;;;;;5.80;4.90;;;34.90;70.40;;;;;;5016906;28;20444;-66
2022/06/20 08:38:46;;;;;;;9.17;5.70;;;35.00;69.10;;;;;;5016902;28;20441;-67
2022/06/20 08:41:32;;;;;;;10.40;5.07;;;35.10;69.90;;;;;;5016650;28;20476;-65
2022/06/20 08:44:34;;;;;;;13.40;6.00;;;35.10;67.70;;;;;;5016699;28;20436;-68
2022/06/20 08:47:46;;;;;;;6.63;5.50;;;35.40;68.90;;;;;;5016843;28;20495;-68
2022/06/20 08:50:42;;;;;;;12.20;5.40;;;35.60;64.60;;;;;;5016538;28;20428;-67
2022/06/20 08:53:56;;;;;;;8.10;5.03;;;35.50;65.80;;;;;;5016535;28;20437;-68
2022/06/20 08:56:34;;;;;;;7.60;5.17;;;35.40;65.70;;;;;;4993171;28;20459;-67
2022/06/20 08:59:12;;;;;;;6.07;5.30;;;35.50;64.10;;;;;;5015906;28;20935;-67
2022/06/20 09:01:46;;;;;;;7.83;5.20;;;35.60;65.30;;;;;;5015972;28;20480;-67
2022/06/20 09:04:35;;;;;;;6.87;5.70;;;36.10;63.20;;;;;;5016128;28;20842;-69
2022/06/20 09:07:29;;;;;;;6.83;5.30;;;36.20;62.60;;;;;;5018471;28;20448;-66
2022/06/20 09:10:22;;;;;;;5.97;5.10;;;36.50;63.70;;;;;;5024195;28;20460;-66
2022/06/20 09:13:03;;;;;;;6.27;5.60;;;36.90;60.80;;;;;;5021199;28;20441;-66
2022/06/20 09:15:44;;;;;;;8.70;5.20;;;37.10;59.30;;;;;;5015613;28;20451;-66
2022/06/20 09:18:26;;;;;;;10.10;5.70;;;37.20;60.20;;;;;;5016531;28;20436;-66
2022/06/20 09:20:59;;;;;;;8.00;5.50;;;37.30;59.00;;;;;;5015784;28;20995;-67
2022/06/20 09:23:47;;;;;;;10.30;6.00;;;37.30;59.10;;;;;;5015876;28;20440;-66
2022/06/20 09:26:23;;;;;;;8.50;4.90;;;37.20;58.80;;;;;;5015824;28;20468;-69
2022/06/20 09:29:02;;;;;;;8.60;6.20;;;37.50;59.20;;;;;;5016004;28;20436;-70
2022/06/20 09:31:55;;;;;;;7.50;5.87;;;37.30;58.10;;;;;;5015620;28;20542;-70
2022/06/20 09:34:51;;;;;;;14.60;7.33;;;37.10;58.60;;;;;;5015740;28;20460;-70
2022/06/20 09:37:44;;;;;;;25.20;7.93;;;36.80;58.60;;;;;;5015413;28;20944;-69
2022/06/20 09:40:21;;;;;;;8.20;5.20;;;36.30;59.50;;;;;;5015637;28;20440;-69
2022/06/20 09:42:55;;;;;;;8.80;4.80;;;36.10;61.00;;;;;;5016765;28;20981;-70
2022/06/20 09:45:28;;;;;;;15.10;6.07;;;36.40;60.50;;;;;;5018335;28;20469;-70
2022/06/20 09:48:06;;;;;;;12.97;6.13;;;36.60;59.20;;;;;;5020296;28;20437;-70
2022/06/20 09:50:44;;;;;;;6.97;6.17;;;36.20;59.10;;;;;;5035103;28;20475;-70
2022/06/20 09:53:23;;;;;;;6.43;4.97;;;36.20;61.60;;;;;;5034247;28;20439;-70
2022/06/20 09:55:59;;;;;;;10.37;6.37;;;36.30;59.40;;;;;;5021738;28;20484;-71
2022/06/20 09:58:37;;;;;;;6.60;5.60;;;35.50;59.50;;;;;;5015404;28;20436;-70
2022/06/20 10:01:13;;;;;;;11.93;5.83;;;34.80;62.00;;;;;;5015468;28;20491;-70
2022/06/20 10:03:48;;;;;;;7.83;5.10;;;34.70;63.50;;;;;;5015415;28;20442;-70
2022/06/20 10:06:23;;;;;;;7.30;5.40;;;35.10;63.10;;;;;;5015003;28;20476;-69
2022/06/20 10:08:58;;;;;;;11.37;7.00;;;35.90;63.20;;;;;;5015119;28;20494;-72
2022/06/20 10:11:30;;;;;;;5.83;5.10;;;36.30;58.90;;;;;;5014733;28;20974;-70
2022/06/20 10:14:06;;;;;;;8.20;5.73;;;36.00;59.40;;;;;;5015372;28;20443;-70
2022/06/20 10:16:39;;;;;;;7.43;5.50;;;35.10;60.00;;;;;;5015727;28;20436;-70
2022/06/20 10:19:15;;;;;;;9.70;6.50;;;34.60;60.60;;;;;;5014453;28;20922;-70
2022/06/20 10:21:46;;;;;;;12.07;5.93;;;33.50;62.70;;;;;;5014845;28;20861;-70
2022/06/20 10:24:47;;;;;;;9.40;5.53;;;33.00;64.80;;;;;;5015057;28;20490;-66
2022/06/20 10:27:43;;;;;;;11.63;5.70;;;32.90;67.40;;;;;;5000311;28;20476;-67
2022/06/20 10:30:14;;;;;;;5.90;5.03;;;32.80;67.20;;;;;;4994682;28;20963;-67
2022/06/20 10:33:09;;;;;;;7.93;5.07;;;32.70;66.80;;;;;;5014623;28;20843;-67
2022/06/20 10:35:56;;;;;;;8.37;5.40;;;32.80;67.30;;;;;;5012098;28;20475;-67
2022/06/20 10:38:33;;;;;;;8.40;5.00;;;32.90;67.20;;;;;;5014840;28;20437;-68
2022/06/20 10:41:07;;;;;;;15.17;6.40;;;33.50;69.90;;;;;;5014137;28;20979;-68
2022/06/20 10:43:43;;;;;;;7.40;5.43;;;33.70;67.60;;;;;;5013958;28;20531;-68
2022/06/20 10:46:14;;;;;;;7.77;5.63;;;34.30;65.90;;;;;;5014484;28;20471;-68
2022/06/20 10:48:56;;;;;;;8.83;5.77;;;34.40;63.10;;;;;;5014353;28;20441;-68
2022/06/20 10:51:34;;;;;;;8.27;6.00;;;34.20;63.40;;;;;;5014471;28;20480;-67
2022/06/20 10:54:10;;;;;;;9.10;5.50;;;34.20;63.20;;;;;;5012902;28;20914;-65
2022/06/20 10:56:42;;;;;;;13.20;6.70;;;33.90;64.00;;;;;;5014414;28;20177;-65
2022/06/20 10:59:23;;;;;;;11.63;5.70;;;33.30;65.40;;;;;;5013967;28;20436;-66
2022/06/20 11:01:54;;;;;;;8.17;6.13;;;33.20;67.50;;;;;;5014161;28;20491;-65
2022/06/20 11:04:51;;;;;;;10.33;6.60;;;33.00;66.10;;;;;;5013921;28;20463;-65
2022/06/20 11:07:28;;;;;;;8.80;6.63;;;32.70;68.70;;;;;;5013859;28;20968;-66
2022/06/20 11:10:08;;;;;;;11.53;6.40;;;32.70;68.80;;;;;;5014154;28;20476;-65
2022/06/20 11:12:50;;;;;;;8.97;6.23;;;33.00;67.50;;;;;;5013923;28;20480;-65
2022/06/20 11:15:28;;;;;;;8.03;6.40;;;33.10;67.70;;;;;;5013925;28;20437;-65
2022/06/20 11:18:04;;;;;;;10.10;6.33;;;33.20;68.50;;;;;;5014072;28;20840;-65
2022/06/20 11:20:36;;;;;;;10.97;6.30;;;33.30;67.00;;;;;;5014078;28;20441;-65
2022/06/20 11:23:11;;;;;;;11.30;6.30;;;33.30;67.00;;;;;;5014069;28;20441;-65
2022/06/20 11:25:48;;;;;;;7.60;5.80;;;33.10;66.80;;;;;;5014045;28;20467;-65
2022/06/20 11:28:30;;;;;;;6.67;5.30;;;32.70;65.90;;;;;;5013907;28;20441;-64
2022/06/20 11:31:03;;;;;;;6.63;5.87;;;32.50;68.00;;;;;;5014071;28;20469;-65
2022/06/20 11:34:01;;;;;;;7.63;5.30;;;32.20;67.90;;;;;;5014094;28;20441;-65
2022/06/20 11:36:37;;;;;;;10.13;5.90;;;31.90;68.80;;;;;;5016618;28;20437;-65
2022/06/20 11:39:19;;;;;;;7.10;5.00;;;31.80;69.30;;;;;;5014421;28;20512;-65
2022/06/20 11:41:50;;;;;;;9.90;5.53;;;32.10;69.50;;;;;;5014489;28;20472;-65
2022/06/20 11:44:31;;;;;;;6.00;5.40;;;32.30;70.50;;;;;;5014368;28;20436;-65
2022/06/20 11:47:32;;;;;;;6.30;4.67;;;32.10;68.40;;;;;;5014759;28;20461;-64
2022/06/20 11:50:24;;;;;;;7.53;5.30;;;32.30;70.50;;;;;;5014258;28;20470;-64
2022/06/20 11:52:57;;;;;;;6.87;5.00;;;32.40;70.30;;;;;;5016237;28;20437;-63
2022/06/20 11:55:29;;;;;;;6.60;6.00;;;32.20;71.00;;;;;;5014781;28;20931;-64
2022/06/20 11:58:00;;;;;;;8.00;6.70;;;31.90;71.00;;;;;;5019651;28;20547;-64
2022/06/20 12:00:34;;;;;;;9.23;6.10;;;31.60;72.20;;;;;;5017936;28;20912;-65
2022/06/20 12:03:07;;;;;;;7.93;6.20;;;31.30;73.40;;;;;;5018068;28;20447;-65
2022/06/20 12:05:46;;;;;;;10.07;6.67;;;30.70;75.10;;;;;;5017593;28;20524;-65
2022/06/20 12:08:19;;;;;;;9.53;6.60;;;30.10;76.00;;;;;;5018492;28;20444;-65
2022/06/20 12:10:50;;;;;;;8.43;5.83;;;29.50;78.40;;;;;;5017660;28;20476;-64
2022/06/20 12:13:37;;;;;;;9.00;5.90;;;29.10;79.00;;;;;;5018784;28;20918;-64
2022/06/20 12:16:15;;;;;;;7.23;5.30;;;28.50;80.80;;;;;;5018816;28;20904;-64
2022/06/20 12:24:35;;;;;;;7.37;5.80;;;27.10;84.30;;;;;;5017730;28;20420;-64
2022/06/20 12:27:02;;;;;;;8.90;5.00;;;26.90;85.80;;;;;;5017261;28;20488;-63
2022/06/20 12:29:32;;;;;;;8.83;5.47;;;26.90;87.10;;;;;;5017591;28;20453;-63
2022/06/20 12:32:01;;;;;;;10.63;6.10;;;26.90;87.20;;;;;;5017279;28;20479;-63
2022/06/20 12:34:42;;;;;;;6.07;4.60;;;26.90;87.70;;;;;;5016987;28;20485;-63
2022/06/20 12:37:19;;;;;;;13.00;6.13;;;26.90;87.90;;;;;;5017155;28;20487;-63
2022/06/20 12:39:51;;;;;;;10.10;5.10;;;26.80;88.10;;;;;;5017468;28;20437;-63
2022/06/20 12:42:23;;;;;;;12.60;4.90;;;26.90;88.80;;;;;;5016666;28;20476;-63
2022/06/20 12:45:12;;;;;;;6.87;4.93;;;27.00;88.40;;;;;;5016901;28;20444;-63
2022/06/20 12:47:57;;;;;;;9.20;7.07;;;27.00;88.80;;;;;;5016658;28;20554;-63
2022/06/20 12:50:29;;;;;;;7.50;4.93;;;26.90;89.30;;;;;;5017480;28;20441;-63
2022/06/20 12:53:17;;;;;;;9.20;6.00;;;27.00;89.90;;;;;;5017058;28;20441;-64
2022/06/20 12:55:57;;;;;;;7.80;5.50;;;27.00;89.20;;;;;;5016604;28;20446;-63
2022/06/20 12:58:42;;;;;;;9.57;5.10;;;27.20;89.80;;;;;;5016454;28;20447;-63
2022/06/20 13:01:15;;;;;;;8.43;5.50;;;27.30;90.10;;;;;;5016075;28;20485;-63
2022/06/20 13:04:09;;;;;;;9.50;5.20;;;27.40;89.30;;;;;;5015676;28;20945;-63
2022/06/20 13:07:09;;;;;;;7.80;5.53;;;27.20;89.30;;;;;;5015657;28;20217;-63
2022/06/20 13:10:02;;;;;;;8.97;5.37;;;27.10;90.80;;;;;;4949061;28;20908;-63
2022/06/20 13:12:50;;;;;;;8.67;6.10;;;27.40;90.90;;;;;;5016171;28;20469;-63
2022/06/20 13:15:37;;;;;;;5.23;4.57;;;27.50;90.20;;;;;;5016149;28;20448;-64
2022/06/20 13:18:31;;;;;;;6.30;4.27;;;27.60;90.60;;;;;;5021916;28;20433;-64
2022/06/20 13:21:06;;;;;;;7.23;3.87;;;27.80;90.10;;;;;;5015441;28;20476;-63
2022/06/20 13:23:51;;;;;;;6.83;4.30;;;27.80;90.40;;;;;;5015771;28;20900;-64
2022/06/20 13:26:29;;;;;;;4.87;3.90;;;27.80;90.30;;;;;;5016058;28;20528;-64
2022/06/20 13:29:01;;;;;;;5.70;4.10;;;27.60;90.20;;;;;;5015881;28;20437;-64
2022/06/20 13:31:38;;;;;;;8.80;3.93;;;27.30;90.80;;;;;;5015490;28;20883;-64
2022/06/20 13:34:13;;;;;;;5.40;4.90;;;27.00;91.30;;;;;;5015706;28;20448;-64
2022/06/20 13:36:48;;;;;;;8.90;4.93;;;26.70;91.70;;;;;;5015635;28;20443;-64
2022/06/20 13:39:24;;;;;;;6.03;4.50;;;26.40;92.80;;;;;;5015238;28;20974;-64
2022/06/20 13:41:54;;;;;;;5.20;4.70;;;26.40;92.90;;;;;;5015458;28;20472;-64
2022/06/20 13:44:35;;;;;;;5.67;4.37;;;26.20;93.00;;;;;;5016213;28;20840;-66
2022/06/20 13:47:10;;;;;;;8.30;5.40;;;26.00;93.80;;;;;;5015162;28;20461;-66
2022/06/20 13:49:42;;;;;;;5.73;4.67;;;25.60;95.10;;;;;;5015402;28;20437;-66
2022/06/20 13:52:18;;;;;;;5.27;4.77;;;25.40;95.80;;;;;;5015005;28;20890;-66
2022/06/20 13:54:49;;;;;;;8.70;5.40;;;25.20;96.30;;;;;;5015351;28;20445;-66
2022/06/20 13:57:23;;;;;;;9.57;5.33;;;24.90;97.50;;;;;;5015206;28;20444;-66
2022/06/20 13:59:57;;;;;;;5.80;5.17;;;24.90;98.30;;;;;;5015016;28;20509;-69
2022/06/20 14:02:32;;;;;;;7.50;4.67;;;24.70;99.20;;;;;;5014894;28;20900;-64
2022/06/20 14:05:00;;;;;;;5.23;4.40;;;24.60;99.90;;;;;;5014954;28;20444;-65
2022/06/20 14:07:31;;;;;;;5.23;4.50;;;24.70;99.90;;;;;;5014971;28;20488;-64
2022/06/20 14:10:00;;;;;;;9.47;5.17;;;24.70;99.90;;;;;;5015004;28;20475;-63
2022/06/20 14:12:33;;;;;;;4.80;4.33;;;24.70;99.90;;;;;;5014631;28;21061;-64
2022/06/20 14:15:03;;;;;;;6.47;4.30;;;24.70;99.90;;;;;;5014932;28;20445;-64
2022/06/20 14:17:33;;;;;;;7.53;4.90;;;24.70;99.90;;;;;;5014339;28;20824;-64
2022/06/20 14:20:07;;;;;;;7.67;3.93;;;24.80;99.90;;;;;;5014417;28;20449;-65
2022/06/20 14:22:40;;;;;;;5.60;3.80;;;24.90;99.90;;;;;;5015034;28;20591;-64
2022/06/20 14:25:22;;;;;;;6.00;3.90;;;25.20;99.90;;;;;;5014877;28;20448;-64
2022/06/20 14:27:52;;;;;;;3.83;3.53;;;25.40;99.90;;;;;;5015088;28;20457;-64
2022/06/20 14:30:26;;;;;;;4.50;4.10;;;25.50;99.90;;;;;;5020384;28;20437;-64
2022/06/20 14:32:59;;;;;;;4.87;4.07;;;25.60;99.90;;;;;;5020485;28;20447;-64
2022/06/20 14:35:42;;;;;;;4.30;4.00;;;25.80;99.90;;;;;;5020252;28;20441;-63
2022/06/20 14:38:13;;;;;;;6.90;3.77;;;25.90;99.90;;;;;;5015640;28;20433;-64
2022/06/20 14:40:47;;;;;;;5.50;3.53;;;26.00;99.90;;;;;;5014573;28;20473;-64
2022/06/20 14:43:25;;;;;;;3.50;3.20;;;26.10;99.20;;;;;;5014670;28;20433;-63
2022/06/20 14:46:04;;;;;;;5.20;3.70;;;26.10;99.80;;;;;;5015248;28;20444;-64
2022/06/20 14:48:34;;;;;;;3.97;3.67;;;26.00;99.40;;;;;;5015114;28;20461;-64
2022/06/20 14:51:07;;;;;;;4.53;3.87;;;26.10;99.30;;;;;;5014316;28;20483;-63
2022/06/20 14:53:46;;;;;;;5.60;3.73;;;26.00;99.20;;;;;;5014492;28;20472;-63
2022/06/20 14:56:17;;;;;;;5.07;3.60;;;25.70;99.30;;;;;;5014267;28;20445;-63
2022/06/20 14:58:51;;;;;;;4.33;3.83;;;25.40;99.90;;;;;;5014262;28;20445;-63
2022/06/20 15:01:27;;;;;;;7.90;4.83;;;25.30;99.90;;;;;;5013937;28;21022;-64
2022/06/20 15:03:58;;;;;;;4.10;3.70;;;25.30;99.90;;;;;;5013876;28;20885;-63
2022/06/20 15:06:30;;;;;;;4.40;3.73;;;25.40;99.90;;;;;;5015059;28;20827;-64
2022/06/20 15:09:05;;;;;;;3.90;3.70;;;25.40;99.90;;;;;;5014203;28;20532;-64
2022/06/20 15:11:35;;;;;;;8.13;3.93;;;25.40;99.90;;;;;;5014107;28;20527;-65
2022/06/20 15:14:14;;;;;;;4.60;4.20;;;25.40;99.90;;;;;;5014475;28;20440;-64
2022/06/20 15:16:45;;;;;;;4.60;3.80;;;25.40;99.90;;;;;;5015922;28;20445;-64
2022/06/20 15:19:22;;;;;;;9.07;3.53;;;25.40;99.90;;;;;;5023992;28;20437;-67
2022/06/20 15:21:54;;;;;;;3.90;3.70;;;25.60;99.90;;;;;;5024535;28;20472;-67
2022/06/20 15:24:44;;;;;;;3.53;3.33;;;25.80;99.90;;;;;;5023240;28;20916;-67
2022/06/20 15:27:17;;;;;;;3.27;3.07;;;26.10;99.90;;;;;;5014055;28;20536;-64
2022/06/20 15:29:52;;;;;;;5.67;3.93;;;26.20;99.90;;;;;;5014784;28;20775;-67
2022/06/20 15:32:32;;;;;;;4.63;3.63;;;26.20;99.50;;;;;;5018562;28;20468;-70
2022/06/20 15:38:18;;;;;;;4.30;3.90;;;26.00;99.50;;;;;;5017410;28;20429;-68
2022/06/20 15:40:50;;;;;;;3.33;3.13;;;26.00;99.30;;;;;;5017690;28;20861;-68
2022/06/20 15:43:23;;;;;;;3.20;3.00;;;25.80;99.40;;;;;;5017882;28;20499;-69
2022/06/20 15:45:57;;;;;;;3.80;3.50;;;25.80;99.40;;;;;;5017745;28;20858;-68
2022/06/20 15:48:30;;;;;;;3.40;3.07;;;25.80;99.50;;;;;;5017755;28;20465;-64
2022/06/20 15:51:00;;;;;;;4.87;3.87;;;25.90;99.90;;;;;;5017541;28;20480;-64
2022/06/20 15:53:48;;;;;;;4.00;3.67;;;25.70;99.20;;;;;;5017657;28;20437;-64
2022/06/20 15:56:22;;;;;;;3.50;3.17;;;25.40;99.60;;;;;;5017557;28;20444;-63
2022/06/20 15:58:59;;;;;;;4.70;3.83;;;25.30;99.70;;;;;;5017578;28;20444;-68
2022/06/20 16:01:39;;;;;;;4.50;3.77;;;25.30;99.90;;;;;;5017252;28;20487;-65
2022/06/20 16:04:13;;;;;;;3.77;3.47;;;25.10;99.70;;;;;;5017130;28;20440;-65
2022/06/20 16:06:47;;;;;;;5.40;4.33;;;25.10;99.90;;;;;;5017504;28;20436;-65
2022/06/20 16:09:37;;;;;;;4.70;3.20;;;25.00;99.90;;;;;;5017385;28;20850;-65
2022/06/20 16:12:07;;;;;;;3.60;3.27;;;25.10;99.90;;;;;;5016968;28;20875;-65
2022/06/20 16:14:37;;;;;;;3.30;3.10;;;25.30;99.90;;;;;;5017339;28;20958;-65
2022/06/20 16:17:06;;;;;;;3.60;3.30;;;25.40;99.90;;;;;;5017446;28;20455;-65
2022/06/20 16:19:36;;;;;;;4.50;4.10;;;25.40;99.90;;;;;;5017730;28;20453;-64
2022/06/20 16:22:07;;;;;;;3.40;3.20;;;25.30;99.90;;;;;;5017339;28;20479;-64
2022/06/20 16:24:37;;;;;;;4.00;3.27;;;25.50;99.50;;;;;;5017373;28;20445;-64
2022/06/20 16:27:22;;;;;;;5.30;3.47;;;25.70;99.10;;;;;;5017006;28;20476;-65
2022/06/20 16:29:53;;;;;;;3.47;3.27;;;25.80;99.10;;;;;;5017411;28;20837;-65
2022/06/20 16:32:27;;;;;;;5.20;3.30;;;25.50;98.90;;;;;;5017061;28;20477;-65
2022/06/20 16:34:55;;;;;;;3.83;3.43;;;25.40;98.50;;;;;;5017104;28;20437;-64
2022/06/20 16:37:24;;;;;;;3.60;3.33;;;25.30;99.40;;;;;;5016839;28;20459;-65
2022/06/20 16:39:53;;;;;;;4.77;3.73;;;25.00;99.80;;;;;;5016581;28;20460;-64
2022/06/20 16:42:37;;;;;;;3.50;3.20;;;24.80;99.80;;;;;;5015310;28;20477;-63
2022/06/20 16:45:25;;;;;;;3.47;3.17;;;24.60;99.90;;;;;;5016726;28;20445;-67
2022/06/20 16:48:04;;;;;;;3.83;3.27;;;24.70;99.90;;;;;;5015975;28;20484;-67
2022/06/20 16:50:37;;;;;;;3.20;3.00;;;24.80;99.90;;;;;;5016509;28;20436;-66
2022/06/20 16:53:23;;;;;;;6.93;5.40;;;24.90;99.90;;;;;;5016508;28;20854;-66
2022/06/20 16:55:52;;;;;;;3.47;3.27;;;25.00;99.90;;;;;;5016316;28;20445;-67
2022/06/20 16:58:29;;;;;;;3.17;2.97;;;25.00;99.80;;;;;;5016276;28;20456;-67
2022/06/20 17:01:04;;;;;;;4.40;3.23;;;24.90;99.20;;;;;;5016134;28;20530;-66
2022/06/20 17:03:43;;;;;;;3.37;3.27;;;24.80;99.90;;;;;;5016029;28;20886;-66
2022/06/20 17:06:21;;;;;;;5.87;3.93;;;24.70;99.90;;;;;;5016300;28;20440;-66
2022/06/20 17:08:57;;;;;;;3.53;3.17;;;24.70;99.90;;;;;;5016232;28;20460;-66
2022/06/20 17:11:32;;;;;;;3.70;3.20;;;24.70;99.90;;;;;;5016446;28;20476;-67
2022/06/20 17:14:16;;;;;;;3.37;3.17;;;24.70;99.90;;;;;;5016844;28;20814;-66
2022/06/20 17:16:55;;;;;;;4.13;3.37;;;24.70;99.90;;;;;;5016278;28;20849;-65
2022/06/20 17:19:30;;;;;;;5.10;3.20;;;24.60;99.90;;;;;;5016050;28;20440;-66
2022/06/20 17:22:02;;;;;;;4.50;4.10;;;24.60;99.90;;;;;;5016270;28;20473;-66
2022/06/20 17:24:43;;;;;;;4.10;3.80;;;24.60;99.90;;;;;;5015992;28;20441;-65
2022/06/20 17:27:14;;;;;;;3.50;3.30;;;24.50;99.70;;;;;;5015747;28;20445;-66
2022/06/20 17:29:53;;;;;;;3.70;3.50;;;24.20;99.90;;;;;;5015507;28;20880;-66
2022/06/20 17:32:27;;;;;;;3.70;3.50;;;24.10;99.90;;;;;;5015314;28;20999;-65
2022/06/20 17:35:01;;;;;;;3.30;3.10;;;24.00;99.90;;;;;;5015246;28;20865;-65
2022/06/20 17:37:39;;;;;;;3.20;3.03;;;24.00;99.90;;;;;;5015471;28;20441;-65
2022/06/20 17:40:14;;;;;;;4.80;3.40;;;23.90;99.90;;;;;;5016009;28;20436;-66
2022/06/20 17:42:45;;;;;;;3.30;3.10;;;23.70;99.90;;;;;;5015411;28;20818;-65
2022/06/20 17:45:18;;;;;;;4.57;3.10;;;23.60;99.90;;;;;;5015424;28;20444;-66